createdAt,value
2022-08-11T00:03:59.358Z,58.1
2022-08-11T00:09:38.864Z,58.1
2022-08-11T00:15:26.998Z,58
2022-08-11T00:22:37.752Z,57.9
2022-08-11T00:28:37.241Z,57.9
2022-08-11T00:34:33.732Z,57.9
2022-08-11T00:41:09.511Z,57.8
2022-08-11T00:52:53.423Z,57.7
2022-08-11T00:59:00.327Z,57.7
2022-08-11T01:05:08.825Z,57.6
2022-08-11T01:11:13.382Z,57.6
2022-08-11T01:17:20.536Z,57.5
2022-08-11T01:24:08.356Z,57.5
2022-08-11T01:30:12.235Z,57.4
2022-08-11T01:35:48.887Z,57.4
2022-08-11T01:41:27.968Z,57.3
2022-08-11T01:46:36.303Z,57.3
2022-08-11T01:53:24.360Z,57.3
2022-08-11T01:59:00.431Z,57.2
2022-08-11T02:04:46.989Z,57.2
2022-08-11T02:10:53.013Z,57.1
2022-08-11T02:16:29.488Z,57.1
2022-08-11T02:22:09.433Z,57.1
2022-08-11T02:28:46.514Z,57
2022-08-11T02:35:49.287Z,56.9
2022-08-11T02:41:30.146Z,56.9
2022-08-11T02:47:24.423Z,56.9
2022-08-11T02:53:13.242Z,56.8
2022-08-11T02:59:21.634Z,56.8
2022-08-11T03:04:54.168Z,56.8
2022-08-11T03:10:54.239Z,56.7
2022-08-11T03:16:21.235Z,56.6
2022-08-11T03:22:18.855Z,56.6
2022-08-11T03:27:56.020Z,56.5
2022-08-11T03:33:40.585Z,56.4
2022-08-11T03:39:56.498Z,56.4
2022-08-11T03:46:32.023Z,56.4
2022-08-11T03:52:24.869Z,56.3
2022-08-11T03:58:02.166Z,56.3
2022-08-11T04:03:47.834Z,56.2
2022-08-11T04:09:29.783Z,56.2
2022-08-11T04:15:36.611Z,56.1
2022-08-11T04:21:22.320Z,56.1
2022-08-11T04:29:08.039Z,56
2022-08-11T04:35:53.235Z,55.9
2022-08-11T04:41:34.085Z,55.9
2022-08-11T04:47:30.156Z,55.9
2022-08-11T04:54:19.635Z,55.8
2022-08-11T04:59:59.563Z,55.8
2022-08-11T05:05:41.021Z,55.8
2022-08-11T05:11:17.429Z,55.8
2022-08-11T05:16:48.122Z,55.7
2022-08-11T05:22:34.727Z,55.6
2022-08-11T05:29:53.287Z,55.6
2022-08-11T05:36:18.402Z,55.6
2022-08-11T05:42:55.738Z,55.4
2022-08-11T05:49:48.439Z,55.4
2022-08-11T05:56:37.053Z,55.4
2022-08-11T06:02:42.764Z,55.3
2022-08-11T06:08:39.069Z,55.3
2022-08-11T06:14:34.389Z,55.3
2022-08-11T06:20:23.765Z,55.2
2022-08-11T06:26:01.588Z,55.2
2022-08-11T06:32:13.616Z,55.1
2022-08-11T06:37:58.909Z,55.1
2022-08-11T06:43:36.673Z,55
2022-08-11T06:49:20.799Z,55
2022-08-11T06:56:29.749Z,54.9
2022-08-11T07:02:22.885Z,54.9
2022-08-11T07:16:30.037Z,54.8
2022-08-11T07:22:53.940Z,54.8
2022-08-11T07:29:02.709Z,54.7
2022-08-11T07:35:13.434Z,54.6
2022-08-11T07:40:58.922Z,54.6
2022-08-11T07:46:38.245Z,54.6
2022-08-11T07:52:19.227Z,54.6
2022-08-11T08:00:51.606Z,54.5
2022-08-11T08:07:09.535Z,54.4
2022-08-11T08:12:37.091Z,54.4
2022-08-11T08:18:41.657Z,54.3
2022-08-11T08:25:02.603Z,54.3
2022-08-11T08:30:55.176Z,54.3
2022-08-11T08:36:45.474Z,54.2
2022-08-11T08:43:01.602Z,54.3
2022-08-11T08:49:46.514Z,54.3
2022-08-11T08:56:27.330Z,54.5
2022-08-11T09:02:33.743Z,54.8
2022-08-11T09:08:29.853Z,55.2
2022-08-11T09:14:23.846Z,55.6
2022-08-11T09:19:58.930Z,55.9
2022-08-11T09:27:04.417Z,56.5
2022-08-11T09:32:46.378Z,56.9
2022-08-11T09:38:48.955Z,57.4
2022-08-11T09:44:57.760Z,57.8
2022-08-11T09:50:50.442Z,58.3
2022-08-11T09:57:28.596Z,58.8
2022-08-11T10:03:40.398Z,59.2
2022-08-11T10:09:29.879Z,59.6
2022-08-11T10:17:04.216Z,60.1
2022-08-11T10:23:00.903Z,60.6
2022-08-11T10:30:26.452Z,61
2022-08-11T10:37:22.621Z,61.5
2022-08-11T10:45:07.390Z,61.9
2022-08-11T10:50:55.070Z,62.4
2022-08-11T10:56:57.071Z,62.7
2022-08-11T11:03:16.912Z,63.1
2022-08-11T11:09:57.873Z,63.4
2022-08-11T11:15:50.555Z,63.8
2022-08-11T11:22:00.531Z,64.1
2022-08-11T11:27:50.705Z,64.4
2022-08-11T11:34:07.060Z,64.7
2022-08-11T11:40:18.728Z,64.9
2022-08-11T11:46:13.606Z,65.1
2022-08-11T11:52:06.850Z,65.4
2022-08-11T11:57:58.861Z,65.6
2022-08-11T12:03:52.207Z,65.9
2022-08-11T12:09:55.726Z,66.1
2022-08-11T12:16:04.224Z,66.4
2022-08-11T12:22:57.548Z,66.6
2022-08-11T12:30:52.009Z,66.9
2022-08-11T12:36:50.166Z,67
2022-08-11T12:44:47.146Z,66.9
2022-08-11T12:52:17.372Z,66.9
2022-08-11T12:58:30.035Z,66.9
2022-08-11T13:04:15.260Z,66.9
2022-08-11T13:10:11.272Z,66.8
2022-08-11T13:17:06.313Z,66.8
2022-08-11T13:22:44.250Z,66.7
2022-08-11T13:29:05.718Z,66.6
2022-08-11T13:34:47.086Z,66.6
2022-08-11T13:42:01.834Z,66.6
2022-08-11T13:47:43.545Z,66.5
2022-08-11T13:53:25.736Z,66.4
2022-08-11T14:01:35.303Z,66.4
2022-08-11T14:08:54.810Z,66.3
2022-08-11T14:16:00.779Z,66.3
2022-08-11T14:22:44.203Z,66.3
2022-08-11T14:30:21.352Z,66.1
2022-08-11T14:36:55.403Z,66.1
2022-08-11T14:43:02.066Z,66
2022-08-11T14:49:50.875Z,65.9
2022-08-11T14:56:00.242Z,65.9
2022-08-11T15:02:13.445Z,65.8
2022-08-11T15:08:59.811Z,65.8
2022-08-11T15:15:28.853Z,65.7
2022-08-11T15:21:26.935Z,65.7
2022-08-11T15:27:04.827Z,65.6
2022-08-11T15:33:18.371Z,65.5
2022-08-11T15:39:19.378Z,65.4
2022-08-11T15:45:57.905Z,65.4
2022-08-11T15:52:18.445Z,65.4
2022-08-11T15:57:59.654Z,65.3
2022-08-11T16:05:13.848Z,65.3
2022-08-11T16:12:16.140Z,65.2
2022-08-11T16:17:57.858Z,65.1
2022-08-11T16:24:06.521Z,65.1
2022-08-11T16:32:31.102Z,65
2022-08-11T16:39:00.158Z,64.9
2022-08-11T16:45:44.087Z,64.9
2022-08-11T16:52:19.090Z,64.8
2022-08-11T16:59:37.663Z,64.8
2022-08-11T17:05:21.106Z,64.8
2022-08-11T17:12:15.422Z,64.6
2022-08-11T17:17:44.566Z,64.6
2022-08-11T17:24:58.262Z,64.5
2022-08-11T17:31:10.826Z,64.4
2022-08-11T17:37:19.021Z,64.4
2022-08-11T17:43:09.251Z,64.4
2022-08-11T17:48:49.688Z,64.3
2022-08-11T17:55:14.988Z,64.3
2022-08-11T18:01:33.439Z,64.2
2022-08-11T18:07:41.459Z,64.1
2022-08-11T18:14:12.094Z,64.1
2022-08-11T18:19:47.327Z,64
2022-08-11T18:26:06.426Z,64
2022-08-11T18:31:53.569Z,63.9
2022-08-11T18:38:51.497Z,63.9
2022-08-11T18:44:50.798Z,63.8
2022-08-11T18:52:20.973Z,63.8
2022-08-11T18:58:11.091Z,63.7
2022-08-11T19:04:10.909Z,63.6
2022-08-11T19:11:01.037Z,63.6
2022-08-11T19:16:56.085Z,63.5
2022-08-11T19:22:55.974Z,63.4
2022-08-11T19:28:06.404Z,63.4
2022-08-11T19:35:08.614Z,63.4
2022-08-11T19:40:54.153Z,63.3
2022-08-11T19:47:32.314Z,63.3
2022-08-11T19:53:50.935Z,63.2
2022-08-11T19:59:19.779Z,63.2
2022-08-11T20:05:27.899Z,63.1
2022-08-11T20:12:07.636Z,63.1
2022-08-11T20:17:43.957Z,63
2022-08-11T20:24:01.411Z,62.8
2022-08-11T20:30:17.692Z,62.8
2022-08-11T20:35:50.042Z,62.7
2022-08-11T20:42:15.402Z,62.6
2022-08-11T20:49:07.252Z,62.6
2022-08-11T20:56:09.635Z,62.5
2022-08-11T21:14:52.913Z,62.3
2022-08-11T21:22:58.775Z,62.3
2022-08-11T21:29:01.895Z,62.2
2022-08-11T21:34:40.800Z,62.1
2022-08-11T21:40:33.804Z,62.1
2022-08-11T21:46:21.019Z,62
2022-08-11T21:52:20.603Z,62
2022-08-11T21:58:06.471Z,61.9
2022-08-11T22:03:52.742Z,61.9
2022-08-11T22:09:20.748Z,61.8
2022-08-11T22:16:43.998Z,61.8
2022-08-11T22:23:24.967Z,61.7
2022-08-11T22:30:06.910Z,61.6
2022-08-11T22:36:18.208Z,61.6
2022-08-11T22:41:50.259Z,61.5
2022-08-11T22:47:22.173Z,61.4
2022-08-11T22:53:22.911Z,61.4
2022-08-11T22:59:24.697Z,61.4
2022-08-11T23:05:25.948Z,61.3
2022-08-11T23:11:01.864Z,61.3
2022-08-11T23:17:05.331Z,61.2
2022-08-11T23:24:12.694Z,61.1
2022-08-11T23:29:55.286Z,61.1
2022-08-11T23:37:36.104Z,61
2022-08-11T23:43:19.234Z,60.9
2022-08-11T23:49:13.777Z,60.9
2022-08-11T23:55:10.158Z,60.9
